createdAt,value
2019-04-01T00:00:53.229Z,4.36
2019-04-01T00:03:22.842Z,4.34
2019-04-01T00:05:52.208Z,4.31
2019-04-01T00:08:21.952Z,4.31
2019-04-01T00:10:51.257Z,4.31
2019-04-01T00:13:20.761Z,4.31
2019-04-01T00:15:50.411Z,4.30
2019-04-01T00:18:19.898Z,4.27
2019-04-01T00:21:08.648Z,4.24
2019-04-01T00:23:38.078Z,4.20
2019-04-01T00:26:07.754Z,4.18
2019-04-01T00:28:37.346Z,4.16
2019-04-01T00:31:06.802Z,4.14
2019-04-01T00:33:38.062Z,4.12
2019-04-01T00:36:07.432Z,4.09
2019-04-01T00:44:41.846Z,4.00
2019-04-01T00:47:11.211Z,3.96
2019-04-01T00:49:40.876Z,3.93
2019-04-01T00:52:10.219Z,3.90
2019-04-01T00:54:40.136Z,3.86
2019-04-01T00:57:09.505Z,3.84
2019-04-01T00:59:41.210Z,3.79
2019-04-01T01:02:10.933Z,3.79
2019-04-01T01:04:40.295Z,3.75
2019-04-01T01:07:09.949Z,3.70
2019-04-01T01:12:28.070Z,3.62
2019-04-01T01:14:57.416Z,3.59
2019-04-01T01:20:23.132Z,3.54
2019-04-01T01:22:53.085Z,3.53
2019-04-01T01:25:22.759Z,3.50
2019-04-01T01:27:52.461Z,3.47
2019-04-01T01:30:22.069Z,3.43
2019-04-01T01:32:53.090Z,3.40
2019-04-01T01:35:22.429Z,3.34
2019-04-01T01:37:52.091Z,3.31
2019-04-01T01:40:21.674Z,3.24
2019-04-01T01:42:51.288Z,3.20
2019-04-01T01:45:20.964Z,3.17
2019-04-01T01:47:50.308Z,3.16
2019-04-01T01:50:19.672Z,3.14
2019-04-01T01:52:49.265Z,3.12
2019-04-01T01:55:38.976Z,3.10
2019-04-01T01:58:08.339Z,3.08
2019-04-01T02:03:47.345Z,3.02
2019-04-01T02:06:16.982Z,2.98
2019-04-01T02:08:46.629Z,2.92
2019-04-01T02:11:16.182Z,2.88
2019-04-01T02:13:45.539Z,2.86
2019-04-01T02:16:15.024Z,2.87
2019-04-01T02:18:44.368Z,2.87
2019-04-01T02:21:19.971Z,2.84
2019-04-01T02:23:49.626Z,2.82
2019-04-01T02:26:19.175Z,2.78
2019-04-01T02:28:48.546Z,2.75
2019-04-01T02:31:19.532Z,2.70
2019-04-01T02:33:49.187Z,2.66
2019-04-01T02:36:18.546Z,2.63
2019-04-01T02:38:48.152Z,2.60
2019-04-01T02:41:17.498Z,2.58
2019-04-01T02:43:47.161Z,2.57
2019-04-01T02:46:16.508Z,2.55
2019-04-01T02:48:47.612Z,2.53
2019-04-01T02:51:17.110Z,2.50
2019-04-01T02:54:05.930Z,2.48
2019-04-01T02:56:36.504Z,2.44
2019-04-01T02:59:06.144Z,2.42
2019-04-01T03:01:37.428Z,2.41
2019-04-01T03:04:07.088Z,2.35
2019-04-01T03:06:36.557Z,2.34
2019-04-01T03:09:27.053Z,2.32
2019-04-01T03:11:56.509Z,2.29
2019-04-01T03:14:27.603Z,2.29
2019-04-01T03:17:16.900Z,2.26
2019-04-01T03:20:05.438Z,2.24
2019-04-01T03:22:34.802Z,2.21
2019-04-01T03:25:25.201Z,2.19
2019-04-01T03:27:54.568Z,2.16
2019-04-01T03:30:24.446Z,2.16
2019-04-01T03:33:00.657Z,2.12
2019-04-01T03:35:31.610Z,2.09
2019-04-01T03:38:03.327Z,2.07
2019-04-01T03:40:32.697Z,2.05
2019-04-01T03:43:02.264Z,2.02
2019-04-01T03:45:31.663Z,1.99
2019-04-01T03:48:01.304Z,1.96
2019-04-01T03:50:32.448Z,1.91
2019-04-01T03:53:01.811Z,1.84
2019-04-01T03:55:31.262Z,1.76
2019-04-01T03:58:00.629Z,1.70
2019-04-01T04:00:30.265Z,1.69
2019-04-01T04:02:59.615Z,1.69
2019-04-01T04:05:48.627Z,1.63
2019-04-01T04:08:37.633Z,1.63
2019-04-01T04:11:07.274Z,1.65
2019-04-01T04:13:36.891Z,1.65
2019-04-01T04:16:06.814Z,1.65
2019-04-01T04:18:36.758Z,1.64
2019-04-01T04:21:06.400Z,1.67
2019-04-01T04:23:36.754Z,1.67
2019-04-01T04:26:06.501Z,1.67
2019-04-01T04:28:42.970Z,1.64
2019-04-01T04:31:32.154Z,1.65
2019-04-01T04:34:01.530Z,1.63
2019-04-01T04:39:26.409Z,1.57
2019-04-01T04:41:56.040Z,1.57
2019-04-01T04:44:25.849Z,1.58
2019-04-01T04:46:55.427Z,1.60
2019-04-01T04:49:25.029Z,1.60
2019-04-01T04:51:56.316Z,1.58
2019-04-01T04:54:25.728Z,1.55
2019-04-01T04:56:55.394Z,1.51
2019-04-01T04:59:24.766Z,1.52
2019-04-01T05:01:54.433Z,1.50
2019-04-01T05:04:23.793Z,1.52
2019-04-01T05:06:53.452Z,1.51
2019-04-01T05:10:02.839Z,1.48
2019-04-01T05:12:32.494Z,1.48
2019-04-01T05:15:01.841Z,1.45
2019-04-01T05:17:31.542Z,1.42
2019-04-01T05:20:00.904Z,1.37
2019-04-01T05:22:51.370Z,1.37
2019-04-01T05:25:20.734Z,1.38
2019-04-01T05:28:09.803Z,1.40
2019-04-01T05:36:54.246Z,1.46
2019-04-01T05:39:23.885Z,1.50
2019-04-01T05:42:12.892Z,1.57
2019-04-01T05:44:42.592Z,1.57
2019-04-01T05:47:12.009Z,1.64
2019-04-01T05:49:42.932Z,1.72
2019-04-01T05:52:12.546Z,1.78
2019-04-01T05:54:42.851Z,1.83
2019-04-01T05:57:12.208Z,1.92
2019-04-01T05:59:43.368Z,2.02
2019-04-01T06:02:12.781Z,2.13
2019-04-01T06:05:23.816Z,2.21
2019-04-01T06:07:53.452Z,2.33
2019-04-01T06:10:22.817Z,2.47
2019-04-01T06:12:52.160Z,2.61
2019-04-01T06:15:21.735Z,2.75
2019-04-01T06:17:51.086Z,2.87
2019-04-01T06:20:20.625Z,2.98
2019-04-01T06:22:49.980Z,3.06
2019-04-01T06:25:19.673Z,3.17
2019-04-01T06:27:49.366Z,3.27
2019-04-01T06:30:20.625Z,3.43
2019-04-01T06:32:49.989Z,3.57
2019-04-01T06:35:19.652Z,3.75
2019-04-01T06:37:49.023Z,3.88
2019-04-01T06:40:18.918Z,4.02
2019-04-01T06:42:48.870Z,4.13
2019-04-01T06:45:18.219Z,4.30
2019-04-01T06:47:47.876Z,4.51
2019-04-01T06:50:17.525Z,4.51
2019-04-01T06:52:46.879Z,4.54
2019-04-01T06:55:16.234Z,4.60
2019-04-01T06:57:45.893Z,4.72
2019-04-01T07:00:15.567Z,4.86
2019-04-01T07:02:44.983Z,4.94
2019-04-01T07:05:14.152Z,5.06
2019-04-01T07:07:44.547Z,5.21
2019-04-01T07:10:13.897Z,5.30
2019-04-01T07:12:43.262Z,5.40
2019-04-01T07:15:12.911Z,5.60
2019-04-01T07:17:42.551Z,5.75
2019-04-01T07:20:11.963Z,5.84
2019-04-01T07:23:21.662Z,5.92
2019-04-01T07:26:12.085Z,6.08
2019-04-01T07:28:41.780Z,6.26
2019-04-01T07:31:11.215Z,6.38
2019-04-01T07:33:40.816Z,6.52
2019-04-01T07:36:10.230Z,6.65
2019-04-01T07:38:58.886Z,6.84
2019-04-01T07:41:28.252Z,6.84
2019-04-01T07:44:10.306Z,7.08
2019-04-01T07:46:39.973Z,7.08
2019-04-01T07:49:28.419Z,7.40
2019-04-01T07:52:17.422Z,7.88
2019-04-01T07:54:47.153Z,7.88
2019-04-01T07:57:16.525Z,7.94
2019-04-01T07:59:46.172Z,8.02
2019-04-01T08:02:28.465Z,8.15
2019-04-01T08:05:09.899Z,8.22
2019-04-01T08:07:39.527Z,8.22
2019-04-01T08:10:28.550Z,8.61
2019-04-01T08:12:57.901Z,8.61
2019-04-01T08:15:27.428Z,8.93
2019-04-01T08:17:57.050Z,9.16
2019-04-01T08:20:26.405Z,9.40
2019-04-01T08:22:57.359Z,9.73
2019-04-01T08:25:27.023Z,9.88
2019-04-01T08:27:56.371Z,10.13
2019-04-01T08:30:25.975Z,10.14
2019-04-01T08:32:55.400Z,10.14
2019-04-01T08:35:25.106Z,10.25
2019-04-01T08:37:54.475Z,10.42
2019-04-01T08:40:23.964Z,10.55
2019-04-01T08:42:59.620Z,10.60
2019-04-01T08:45:29.064Z,10.70
2019-04-01T08:47:58.437Z,10.86
2019-04-01T08:50:47.436Z,10.84
2019-04-01T08:53:57.114Z,10.71
2019-04-01T08:59:48.596Z,10.77
2019-04-01T09:02:19.583Z,11.00
2019-04-01T09:04:49.351Z,11.29
2019-04-01T09:07:19.008Z,11.61
2019-04-01T09:12:50.408Z,12.02
2019-04-01T09:15:20.156Z,12.31
2019-04-01T09:17:49.824Z,12.42
2019-04-01T09:20:19.181Z,12.65
2019-04-01T09:22:48.581Z,12.74
2019-04-01T09:25:18.206Z,12.69
2019-04-01T09:27:47.557Z,12.53
2019-04-01T09:30:18.872Z,12.29
2019-04-01T09:32:54.073Z,12.11
2019-04-01T09:35:23.444Z,12.29
2019-04-01T09:37:53.115Z,12.64
2019-04-01T09:40:22.467Z,12.71
2019-04-01T09:42:52.164Z,12.66
2019-04-01T09:45:21.607Z,12.80
2019-04-01T09:47:51.251Z,12.79
2019-04-01T09:53:22.696Z,12.45
2019-04-01T09:58:33.164Z,12.99
2019-04-01T10:01:02.780Z,12.87
2019-04-01T10:03:32.287Z,12.48
2019-04-01T10:09:15.329Z,12.59
2019-04-01T10:11:44.685Z,12.72
2019-04-01T10:14:19.767Z,12.61
2019-04-01T10:16:49.420Z,12.56
2019-04-01T10:19:18.835Z,12.84
2019-04-01T10:21:48.463Z,12.94
2019-04-01T10:27:32.870Z,12.91
2019-04-01T10:30:02.346Z,13.01
2019-04-01T10:32:32.124Z,13.07
2019-04-01T10:38:18.249Z,13.49
2019-04-01T10:40:47.606Z,13.37
2019-04-01T10:43:17.384Z,13.33
2019-04-01T10:45:46.805Z,13.53
2019-04-01T10:48:16.418Z,13.97
2019-04-01T10:50:47.432Z,13.95
2019-04-01T10:53:16.831Z,13.86
2019-04-01T10:55:46.534Z,13.78
2019-04-01T10:58:16.280Z,13.76
2019-04-01T11:00:45.750Z,13.84
2019-04-01T11:03:15.396Z,13.80
2019-04-01T11:06:06.038Z,13.73
2019-04-01T11:08:35.492Z,13.73
2019-04-01T11:11:04.826Z,13.85
2019-04-01T11:13:34.360Z,13.72
2019-04-01T11:16:03.757Z,13.88
2019-04-01T11:18:33.401Z,13.77
2019-04-01T11:21:02.756Z,13.81
2019-04-01T11:23:33.766Z,13.89
2019-04-01T11:26:22.615Z,14.09
2019-04-01T11:28:52.228Z,14.38
2019-04-01T11:34:10.528Z,14.56
2019-04-01T11:36:39.868Z,14.72
2019-04-01T11:42:32.926Z,14.56
2019-04-01T11:45:05.599Z,14.90
2019-04-01T11:47:38.962Z,14.91
2019-04-01T11:53:42.912Z,15.37
2019-04-01T11:56:12.535Z,15.30
2019-04-01T11:58:41.884Z,15.23
2019-04-01T12:01:11.469Z,15.37
2019-04-01T12:03:40.831Z,15.42
2019-04-01T12:06:10.503Z,15.26
2019-04-01T12:08:39.869Z,15.19
2019-04-01T12:11:09.514Z,15.18
2019-04-01T12:13:38.877Z,14.97
2019-04-01T12:16:08.457Z,15.09
2019-04-01T12:18:37.933Z,15.20
2019-04-01T12:21:08.267Z,15.29
2019-04-01T12:23:57.681Z,15.49
2019-04-01T12:26:27.030Z,15.48
2019-04-01T12:28:56.665Z,15.55
2019-04-01T12:31:26.016Z,15.72
2019-04-01T12:33:55.661Z,15.96
2019-04-01T12:36:25.036Z,15.73
2019-04-01T12:38:54.681Z,15.61
2019-04-01T12:41:24.049Z,15.50
2019-04-01T12:43:53.709Z,15.30
2019-04-01T12:46:23.059Z,15.33
2019-04-01T12:48:52.725Z,15.31
2019-04-01T12:51:22.855Z,15.20
2019-04-01T12:53:52.811Z,15.42
2019-04-01T12:57:02.221Z,15.67
2019-04-01T12:59:50.979Z,15.60
2019-04-01T13:02:20.672Z,15.56
2019-04-01T13:04:51.488Z,15.49
2019-04-01T13:07:40.164Z,15.41
2019-04-01T13:10:09.743Z,15.66
2019-04-01T13:12:39.353Z,15.93
2019-04-01T13:15:08.793Z,15.86
2019-04-01T13:20:58.683Z,15.70
2019-04-01T13:23:28.050Z,15.60
2019-04-01T13:25:58.031Z,15.52
2019-04-01T13:28:27.933Z,15.49
2019-04-01T13:30:57.282Z,15.41
2019-04-01T13:33:26.758Z,15.25
2019-04-01T13:35:56.911Z,15.21
2019-04-01T13:38:26.217Z,15.23
2019-04-01T13:40:56.212Z,15.18
2019-04-01T13:43:25.715Z,15.40
2019-04-01T13:45:55.071Z,15.67
2019-04-01T13:48:24.740Z,15.62
2019-04-01T13:50:54.401Z,15.46
2019-04-01T13:53:23.885Z,15.51
2019-04-01T13:55:53.236Z,15.67
2019-04-01T13:58:22.825Z,15.77
2019-04-01T14:00:52.188Z,15.61
2019-04-01T14:03:21.861Z,15.61
2019-04-01T14:05:51.233Z,15.39
2019-04-01T14:08:22.317Z,15.39
2019-04-01T14:10:57.905Z,15.52
2019-04-01T14:13:27.268Z,15.44
2019-04-01T14:15:56.838Z,15.47
2019-04-01T14:18:26.188Z,15.38
2019-04-01T14:20:56.151Z,15.17
2019-04-01T14:23:25.507Z,15.13
2019-04-01T14:25:54.999Z,14.92
2019-04-01T14:28:24.349Z,14.79
2019-04-01T14:30:54.030Z,14.89
2019-04-01T14:33:23.396Z,15.03
2019-04-01T14:35:53.045Z,15.15
2019-04-01T14:38:22.417Z,15.24
2019-04-01T14:41:04.200Z,15.28
2019-04-01T14:43:45.989Z,15.28
2019-04-01T14:46:16.309Z,15.13
2019-04-01T14:48:46.144Z,14.72
2019-04-01T14:51:15.502Z,14.63
2019-04-01T14:53:45.204Z,14.59
2019-04-01T14:56:15.119Z,14.62
2019-04-01T14:58:45.213Z,14.59
2019-04-01T15:01:14.885Z,14.54
2019-04-01T15:03:44.246Z,14.57
2019-04-01T15:06:13.875Z,14.48
2019-04-01T15:08:43.227Z,14.44
2019-04-01T15:11:12.888Z,14.45
2019-04-01T15:17:17.333Z,14.59
2019-04-01T15:19:53.126Z,14.48
2019-04-01T15:22:22.864Z,14.35
2019-04-01T15:25:13.338Z,14.38
2019-04-01T15:27:42.710Z,14.38
2019-04-01T15:30:53.726Z,14.39
2019-04-01T15:33:23.096Z,14.31
2019-04-01T15:35:52.735Z,14.29
2019-04-01T15:38:22.516Z,14.24
2019-04-01T15:41:03.321Z,14.33
2019-04-01T15:43:32.985Z,14.22
2019-04-01T15:46:04.185Z,14.20
2019-04-01T15:48:38.530Z,14.21
2019-04-01T15:51:20.159Z,14.11
2019-04-01T15:54:01.266Z,14.07
2019-04-01T15:56:41.672Z,13.94
2019-04-01T15:59:15.111Z,13.94
2019-04-01T16:04:59.132Z,13.81
2019-04-01T16:07:28.984Z,13.69
2019-04-01T16:10:18.643Z,13.71
2019-04-01T16:12:48.499Z,13.70
2019-04-01T16:15:18.144Z,13.58
2019-04-01T16:17:47.598Z,13.52
2019-04-01T16:20:17.144Z,13.46
2019-04-01T16:22:46.502Z,13.41
2019-04-01T16:25:16.159Z,13.43
2019-04-01T16:27:45.519Z,13.48
2019-04-01T16:30:15.196Z,13.51
2019-04-01T16:33:15.762Z,13.43
2019-04-01T16:35:46.796Z,13.34
2019-04-01T16:38:16.169Z,13.43
2019-04-01T16:40:45.813Z,13.41
2019-04-01T16:43:17.094Z,13.37
2019-04-01T16:46:05.690Z,13.23
2019-04-01T16:51:14.280Z,13.10
2019-04-01T16:53:44.541Z,13.08
2019-04-01T16:56:33.796Z,12.96
2019-04-01T16:59:03.189Z,12.90
2019-04-01T17:01:32.541Z,12.82
2019-04-01T17:04:02.517Z,12.78
2019-04-01T17:09:27.771Z,12.65
2019-04-01T17:11:59.043Z,12.54
2019-04-01T17:14:47.727Z,12.46
2019-04-01T17:17:17.390Z,12.39
2019-04-01T17:19:46.758Z,12.30
2019-04-01T17:22:16.328Z,12.19
2019-04-01T17:24:46.105Z,12.08
2019-04-01T17:27:36.149Z,12.00
2019-04-01T17:30:24.844Z,11.93
2019-04-01T17:32:54.821Z,11.90
2019-04-01T17:35:24.478Z,11.82
2019-04-01T17:37:53.853Z,11.76
2019-04-01T17:40:23.318Z,11.72
2019-04-01T17:46:41.816Z,11.58
2019-04-01T17:52:00.311Z,11.42
2019-04-01T17:54:29.663Z,11.29
2019-04-01T17:56:59.325Z,11.19
2019-04-01T17:59:28.679Z,11.11
2019-04-01T18:01:58.348Z,11.04
2019-04-01T18:04:27.687Z,11.05
2019-04-01T18:09:53.044Z,10.96
2019-04-01T18:12:23.880Z,10.87
2019-04-01T18:15:12.776Z,10.81
2019-04-01T18:17:42.439Z,10.72
2019-04-01T18:23:13.947Z,10.58
2019-04-01T18:25:46.606Z,10.52
2019-04-01T18:28:16.318Z,10.44
2019-04-01T18:30:45.691Z,10.39
2019-04-01T18:33:15.166Z,10.32
2019-04-01T18:35:45.070Z,10.26
2019-04-01T18:38:21.454Z,10.22
2019-04-01T18:40:50.803Z,10.14
2019-04-01T18:43:39.804Z,10.07
2019-04-01T18:46:09.459Z,10.05
2019-04-01T18:51:25.523Z,9.85
2019-04-01T18:53:54.886Z,9.82
2019-04-01T18:56:24.557Z,9.79
2019-04-01T18:58:54.430Z,9.76
2019-04-01T19:01:23.754Z,9.68
2019-04-01T19:03:53.127Z,9.62
2019-04-01T19:06:22.555Z,9.59
2019-04-01T19:08:51.970Z,9.52
2019-04-01T19:11:21.556Z,9.51
2019-04-01T19:13:51.229Z,9.48
2019-04-01T19:16:23.053Z,9.44
2019-04-01T19:19:11.245Z,9.44
2019-04-01T19:21:53.157Z,9.39
2019-04-01T19:24:22.578Z,9.35
2019-04-01T19:26:52.242Z,9.27
2019-04-01T19:29:32.003Z,9.23
2019-04-01T19:32:06.566Z,9.19
2019-04-01T19:34:44.242Z,9.15
2019-04-01T19:37:13.767Z,9.14
2019-04-01T19:39:43.119Z,9.07
2019-04-01T19:45:07.020Z,9.01
2019-04-01T19:47:36.671Z,8.99
2019-04-01T19:50:26.938Z,8.95
2019-04-01T19:53:08.790Z,8.86
2019-04-01T19:55:39.061Z,8.86
2019-04-01T19:58:08.757Z,8.82
2019-04-01T20:00:38.980Z,8.80
2019-04-01T20:03:08.637Z,8.76
2019-04-01T20:05:38.968Z,8.71
2019-04-01T20:11:22.145Z,8.67
2019-04-01T20:13:54.724Z,8.67
2019-04-01T20:16:41.707Z,8.59
2019-04-01T20:19:11.062Z,8.59
2019-04-01T20:21:40.731Z,8.54
2019-04-01T20:24:10.418Z,8.48
2019-04-01T20:26:40.078Z,8.46
2019-04-01T20:29:10.979Z,8.46
2019-04-01T20:32:30.092Z,8.43
2019-04-01T20:35:00.015Z,8.40
2019-04-01T20:37:51.736Z,8.34
2019-04-01T20:40:21.377Z,8.26
2019-04-01T20:42:50.744Z,8.23
2019-04-01T20:45:20.092Z,8.26
2019-04-01T20:47:50.523Z,8.27
2019-04-01T20:50:40.869Z,8.19
2019-04-01T20:53:10.239Z,8.13
2019-04-01T20:55:48.213Z,8.07
2019-04-01T20:58:30.602Z,8.02
2019-04-01T21:00:59.961Z,8.02
2019-04-01T21:03:34.791Z,7.94
2019-04-01T21:06:04.419Z,7.94
2019-04-01T21:08:46.305Z,7.88
2019-04-01T21:11:29.733Z,7.89
2019-04-01T21:14:03.085Z,7.89
2019-04-01T21:16:52.065Z,7.83
2019-04-01T21:19:21.391Z,7.78
2019-04-01T21:21:52.382Z,7.76
2019-04-01T21:24:23.346Z,7.73
2019-04-01T21:26:55.809Z,7.73
2019-04-01T21:29:44.781Z,7.69
2019-04-01T21:32:14.144Z,7.65
2019-04-01T21:34:43.809Z,7.59
2019-04-01T21:37:13.183Z,7.55
2019-04-01T21:39:43.099Z,7.49
2019-04-01T21:45:54.449Z,7.44
2019-04-01T21:48:43.410Z,7.30
2019-04-01T21:51:25.087Z,7.25
2019-04-01T21:53:54.533Z,7.25
2019-04-01T21:56:23.962Z,7.25
2019-04-01T21:58:55.298Z,7.25
2019-04-01T22:01:44.205Z,7.21
2019-04-01T22:04:15.200Z,7.21
2019-04-01T22:06:45.141Z,7.14
2019-04-01T22:09:14.513Z,7.07
2019-04-01T22:11:44.159Z,7.03
2019-04-01T22:14:25.732Z,7.00
2019-04-01T22:16:55.187Z,7.00
2019-04-01T22:19:24.584Z,6.98
2019-04-01T22:21:54.227Z,6.97
2019-04-01T22:24:23.592Z,6.90
2019-04-01T22:26:53.288Z,6.85
2019-04-01T22:29:22.947Z,6.81
2019-04-01T22:31:54.590Z,6.75
2019-04-01T22:34:24.070Z,6.77
2019-04-01T22:37:12.842Z,6.73
2019-04-01T22:42:46.489Z,6.66
2019-04-01T22:45:16.123Z,6.62
2019-04-01T22:47:45.843Z,6.58
2019-04-01T22:50:35.624Z,6.51
2019-04-01T22:53:05.366Z,6.50
2019-04-01T23:01:36.951Z,6.41
2019-04-01T23:04:06.307Z,6.40
2019-04-01T23:06:35.837Z,6.39
2019-04-01T23:12:07.118Z,6.33
2019-04-01T23:14:36.479Z,6.26
2019-04-01T23:17:07.465Z,6.21
2019-04-01T23:19:37.068Z,6.16
2019-04-01T23:22:06.410Z,6.12
2019-04-01T23:24:36.079Z,6.14
2019-04-01T23:27:05.444Z,6.12
2019-04-01T23:29:35.067Z,6.10
2019-04-01T23:32:16.281Z,6.10
2019-04-01T23:34:47.356Z,6.05
2019-04-01T23:37:17.030Z,6.03
2019-04-01T23:39:48.602Z,6.01
2019-04-01T23:42:18.252Z,6.01
2019-04-01T23:44:47.611Z,5.98
2019-04-01T23:47:17.533Z,5.95
2019-04-01T23:49:47.199Z,5.92
2019-04-01T23:52:16.558Z,5.90
2019-04-01T23:54:46.163Z,5.87
2019-04-01T23:57:15.507Z,5.82
2019-04-01T23:59:44.876Z,5.76
